Time;durP1;ratioP1;P1;durP2;ratioP2;P2;SDS_P1;SDS_P2;PMS_P1;PMS_P2;Temp;Humidity;BMP_temperature;BMP_pressure;BME280_temperature;BME280_humidity;BME280_pressure;Samples;Min_cycle;Max_cycle;Signal;HPM_P1;HPM_P2
2021/04/24 00:00:32;;;;;;;9.00;4.33;;;;;;;6.40;55.56;100641.01;1699216;82;21158;-47
2021/04/24 00:03:00;;;;;;;6.60;3.02;;;;;;;6.42;55.56;100639.17;1751997;80;21562;-47
2021/04/24 00:05:35;;;;;;;7.90;4.20;;;;;;;6.43;55.69;100638.27;1755738;80;21542;-45
2021/04/24 00:08:05;;;;;;;6.08;3.70;;;;;;;6.44;55.81;100647.92;1755476;80;21143;-44
2021/04/24 00:10:36;;;;;;;5.77;2.80;;;;;;;6.45;56.03;100645.66;1758141;80;21129;-41
2021/04/24 00:13:05;;;;;;;5.35;2.85;;;;;;;6.45;56.14;100645.23;1684681;83;21601;-42
2021/04/24 00:15:36;;;;;;;7.15;3.20;;;;;;;6.46;56.12;100640.31;1752329;80;21107;-43
2021/04/24 00:18:06;;;;;;;6.28;3.55;;;;;;;6.44;55.74;100638.66;1757373;80;21173;-41
2021/04/24 00:20:35;;;;;;;5.60;2.90;;;;;;;6.40;55.91;100637.03;1753729;80;21174;-45
2021/04/24 00:23:04;;;;;;;5.12;2.92;;;;;;;6.39;55.97;100637.97;1748942;80;21166;-42
2021/04/24 00:25:32;;;;;;;6.72;3.17;;;;;;;6.36;55.84;100643.39;1750626;80;21423;-43
2021/04/24 00:28:00;;;;;;;5.92;3.22;;;;;;;6.29;55.90;100646.25;1755552;80;21162;-43
2021/04/24 00:30:28;;;;;;;4.78;3.02;;;;;;;6.29;56.14;100645.40;1749137;80;21227;-44
2021/04/24 00:32:56;;;;;;;6.92;3.05;;;;;;;6.29;56.21;100652.02;1750098;80;21130;-43
2021/04/24 00:35:25;;;;;;;5.70;2.92;;;;;;;6.26;56.26;100651.68;1748660;80;21561;-42
2021/04/24 00:37:53;;;;;;;5.80;3.58;;;;;;;6.23;56.46;100646.97;1754081;80;21197;-42
2021/04/24 00:40:20;;;;;;;6.37;3.50;;;;;;;6.21;56.46;100644.84;1750037;80;21158;-46
2021/04/24 00:42:52;;;;;;;5.10;3.12;;;;;;;6.15;56.59;100639.31;1753144;80;21169;-41
2021/04/24 00:45:22;;;;;;;7.42;2.90;;;;;;;6.03;56.83;100646.39;1748706;80;21551;-41
2021/04/24 00:47:52;;;;;;;4.65;2.70;;;;;;;5.94;57.45;100649.36;1753239;80;21147;-40
2021/04/24 00:50:26;;;;;;;3.92;2.75;;;;;;;5.79;57.47;100643.66;1703894;82;21118;-43
2021/04/24 00:53:23;;;;;;;4.10;2.22;;;;;;;5.67;57.80;100639.27;1795099;77;22901;-38
2021/04/24 00:55:52;;;;;;;3.58;2.47;;;;;;;5.56;58.21;100644.95;1746234;80;21145;-44
2021/04/24 00:58:20;;;;;;;5.80;3.05;;;;;;;5.49;58.48;100639.47;1767128;80;21163;-45
2021/04/24 01:00:48;;;;;;;4.45;2.75;;;;;;;5.47;58.76;100645.27;1732674;81;21160;-44
2021/04/24 01:03:15;;;;;;;2.98;2.02;;;;;;;5.44;58.84;100643.59;1758668;80;21202;-46
2021/04/24 01:05:43;;;;;;;3.98;2.22;;;;;;;5.40;59.00;100647.28;1742092;79;21670;-54
2021/04/24 01:08:11;;;;;;;3.55;2.55;;;;;;;5.37;59.22;100652.22;1739545;81;21164;-43
2021/04/24 01:10:41;;;;;;;6.62;2.42;;;;;;;5.37;59.46;100646.92;1743563;81;21177;-43
2021/04/24 01:13:09;;;;;;;5.37;2.95;;;;;;;5.36;59.56;100647.83;1744298;81;21137;-44
2021/04/24 01:15:36;;;;;;;5.03;2.83;;;;;;;5.36;59.79;100649.61;1731215;81;21180;-41
2021/04/24 01:18:06;;;;;;;5.72;2.55;;;;;;;5.38;59.76;100643.35;1764310;80;21304;-41
2021/04/24 01:20:34;;;;;;;5.07;3.00;;;;;;;5.40;59.77;100644.63;1761031;80;21201;-43
2021/04/24 01:23:05;;;;;;;4.60;2.72;;;;;;;5.38;59.88;100640.70;1747188;80;22201;-40
2021/04/24 01:25:33;;;;;;;4.00;2.80;;;;;;;5.39;60.11;100645.53;1745417;80;21129;-43
2021/04/24 01:28:01;;;;;;;3.67;2.67;;;;;;;5.40;60.18;100641.52;1767686;80;21176;-44
2021/04/24 01:30:32;;;;;;;5.28;2.90;;;;;;;5.40;60.19;100638.88;1743551;80;21195;-47
2021/04/24 01:33:02;;;;;;;5.83;2.50;;;;;;;5.40;60.21;100634.91;1712643;81;21193;-49
2021/04/24 01:35:31;;;;;;;4.20;2.60;;;;;;;5.38;60.25;100640.70;1725520;82;21176;-46
2021/04/24 01:37:59;;;;;;;6.12;2.85;;;;;;;5.38;60.48;100643.81;1729704;81;21529;-46
2021/04/24 01:40:27;;;;;;;5.62;2.22;;;;;;;5.34;60.74;100636.89;1710011;81;21164;-42
2021/04/24 01:42:54;;;;;;;4.95;2.50;;;;;;;5.32;61.11;100636.11;1732096;81;21140;-44
2021/04/24 01:45:24;;;;;;;4.33;2.65;;;;;;;5.29;61.41;100634.86;1719298;82;21600;-46
2021/04/24 01:47:52;;;;;;;5.22;2.72;;;;;;;5.21;61.55;100643.06;1714240;82;21241;-45
2021/04/24 01:50:24;;;;;;;4.53;2.30;;;;;;;5.18;61.83;100637.41;1718800;81;21815;-43
2021/04/24 01:52:52;;;;;;;4.10;2.42;;;;;;;5.16;62.16;100635.27;1742564;80;21129;-45
2021/04/24 01:55:24;;;;;;;5.47;2.92;;;;;;;5.11;62.55;100639.85;1748074;80;21200;-44
2021/04/24 01:57:52;;;;;;;4.70;2.50;;;;;;;5.02;62.69;100641.50;1714124;82;21188;-41
2021/04/24 02:00:31;;;;;;;3.77;2.00;;;;;;;4.97;62.92;100642.97;1711744;82;21208;-41
2021/04/24 02:03:00;;;;;;;2.67;1.87;;;;;;;4.96;63.06;100639.05;1745405;80;21126;-43
2021/04/24 02:05:28;;;;;;;3.60;2.20;;;;;;;4.97;63.33;100648.72;1749369;80;21157;-43
2021/04/24 02:08:00;;;;;;;3.45;2.10;;;;;;;4.98;63.54;100646.47;1719537;81;21184;-45
2021/04/24 02:10:28;;;;;;;4.33;2.87;;;;;;;4.97;63.65;100647.40;1728255;81;21183;-46
2021/04/24 02:12:58;;;;;;;6.00;2.35;;;;;;;4.97;63.83;100641.65;1722480;81;21201;-41
2021/04/24 02:15:26;;;;;;;4.62;2.50;;;;;;;5.00;63.84;100638.04;1723021;82;21182;-44
2021/04/24 02:17:54;;;;;;;3.55;1.92;;;;;;;5.01;63.69;100642.40;1745650;80;21185;-42
2021/04/24 02:20:22;;;;;;;6.05;3.00;;;;;;;5.03;63.63;100638.39;1742871;81;21188;-46
2021/04/24 02:22:51;;;;;;;3.22;1.85;;;;;;;5.01;63.74;100638.44;1736147;81;21144;-47
2021/04/24 02:25:20;;;;;;;3.72;2.30;;;;;;;5.00;63.82;100636.72;1722175;81;21592;-45
2021/04/24 02:27:48;;;;;;;6.08;2.47;;;;;;;5.00;63.89;100639.36;1746577;80;21157;-42
2021/04/24 02:30:18;;;;;;;5.90;2.05;;;;;;;4.98;63.97;100641.19;1735976;81;21144;-44
2021/04/24 02:32:45;;;;;;;4.53;2.12;;;;;;;4.98;64.28;100639.86;1744731;81;21190;-40
2021/04/24 02:35:17;;;;;;;4.92;3.15;;;;;;;4.94;64.41;100636.94;1738775;81;21145;-40
2021/04/24 02:37:44;;;;;;;6.72;2.33;;;;;;;4.92;64.65;100633.47;1751156;81;21185;-40
2021/04/24 02:40:16;;;;;;;3.20;2.12;;;;;;;4.90;65.01;100640.12;1720904;82;21232;-41
2021/04/24 02:42:44;;;;;;;4.20;2.10;;;;;;;4.88;65.17;100646.36;1722196;81;21618;-40
2021/04/24 02:45:13;;;;;;;2.83;2.05;;;;;;;4.86;65.38;100645.08;1722671;81;21153;-43
2021/04/24 02:47:41;;;;;;;3.47;2.22;;;;;;;4.89;65.48;100650.72;1710058;81;21141;-46
2021/04/24 02:50:12;;;;;;;3.65;2.12;;;;;;;4.89;65.54;100656.01;1739849;81;21658;-43
2021/04/24 02:52:40;;;;;;;2.72;2.02;;;;;;;4.92;65.52;100656.80;1708765;81;21169;-41
2021/04/24 02:55:09;;;;;;;3.10;1.60;;;;;;;4.97;65.46;100660.15;1728874;81;21161;-41
2021/04/24 02:57:37;;;;;;;3.83;2.22;;;;;;;5.01;65.41;100658.72;1746423;81;21185;-43
2021/04/24 03:00:09;;;;;;;5.83;2.35;;;;;;;5.04;65.28;100656.86;1725962;81;21591;-45
2021/04/24 03:02:37;;;;;;;3.42;2.00;;;;;;;5.07;65.16;100662.50;1729737;81;21168;-51
2021/04/24 03:05:14;;;;;;;5.03;1.82;;;;;;;5.07;65.22;100663.83;1731220;81;21168;-43
2021/04/24 03:07:43;;;;;;;5.17;2.25;;;;;;;5.07;65.19;100659.86;1728046;81;21600;-45
2021/04/24 03:10:12;;;;;;;2.60;1.87;;;;;;;5.10;65.11;100667.22;1731260;81;21177;-47
2021/04/24 03:12:40;;;;;;;4.50;1.77;;;;;;;5.11;65.04;100661.47;1747585;80;21632;-41
2021/04/24 03:15:09;;;;;;;3.83;2.35;;;;;;;5.13;65.02;100656.53;1741472;81;21143;-46
2021/04/24 03:17:36;;;;;;;2.75;2.00;;;;;;;5.16;65.01;100661.72;1745776;80;21567;-45
2021/04/24 03:20:07;;;;;;;2.37;1.72;;;;;;;5.19;64.96;100664.72;1744130;81;21197;-42
2021/04/24 03:22:35;;;;;;;3.37;2.05;;;;;;;5.21;64.99;100672.14;1730650;81;21187;-41
2021/04/24 03:25:04;;;;;;;2.70;1.47;;;;;;;5.21;65.28;100667.71;1727949;82;21152;-44
2021/04/24 03:27:31;;;;;;;2.62;2.00;;;;;;;5.25;65.38;100667.64;1711918;81;21149;-42
2021/04/24 03:29:59;;;;;;;4.40;2.02;;;;;;;5.26;65.25;100674.17;1723265;81;21569;-41
2021/04/24 03:32:27;;;;;;;2.65;1.70;;;;;;;5.26;65.25;100674.64;1714964;82;21172;-44
2021/04/24 03:34:55;;;;;;;3.33;2.20;;;;;;;5.27;65.18;100681.21;1722842;82;21173;-45
2021/04/24 03:37:22;;;;;;;4.08;1.85;;;;;;;5.27;65.22;100681.21;1716051;81;21252;-46
2021/04/24 03:39:50;;;;;;;3.70;2.10;;;;;;;5.28;65.29;100677.64;1721261;82;21442;-44
2021/04/24 03:42:19;;;;;;;3.77;1.95;;;;;;;5.31;65.27;100676.67;1723031;81;21138;-43
2021/04/24 03:44:46;;;;;;;3.02;1.80;;;;;;;5.32;65.22;100683.70;1715542;82;21160;-44
2021/04/24 03:47:15;;;;;;;5.40;2.17;;;;;;;5.30;65.11;100682.42;1713932;82;21128;-42
2021/04/24 03:49:42;;;;;;;3.95;2.35;;;;;;;5.28;65.13;100681.61;1708995;82;21169;-44
2021/04/24 03:52:11;;;;;;;3.90;2.33;;;;;;;5.29;65.05;100685.11;1716955;82;21194;-44
2021/04/24 03:54:38;;;;;;;3.40;1.75;;;;;;;5.28;65.11;100682.07;1712957;82;21122;-44
2021/04/24 03:57:06;;;;;;;4.12;1.98;;;;;;;5.29;65.06;100686.00;1731780;81;21263;-44
2021/04/24 03:59:34;;;;;;;2.85;1.90;;;;;;;5.27;65.14;100690.47;1718976;82;21135;-43
2021/04/24 04:02:02;;;;;;;3.22;1.87;;;;;;;5.26;65.29;100694.47;1728872;81;21172;-50
2021/04/24 04:04:30;;;;;;;5.55;1.77;;;;;;;5.27;65.36;100699.72;1725415;82;21589;-43
2021/04/24 04:06:58;;;;;;;4.15;2.47;;;;;;;5.28;65.33;100700.58;1723680;81;21169;-44
2021/04/24 04:09:25;;;;;;;5.10;2.22;;;;;;;5.27;65.43;100706.33;1732008;81;21176;-43
2021/04/24 04:11:53;;;;;;;3.98;2.40;;;;;;;5.30;65.42;100713.30;1726099;81;21555;-41
2021/04/24 04:14:21;;;;;;;2.33;1.45;;;;;;;5.29;65.49;100712.45;1745069;81;21664;-45
2021/04/24 04:16:48;;;;;;;3.20;1.95;;;;;;;5.30;65.72;100705.37;1728970;81;21260;-42
2021/04/24 04:19:17;;;;;;;3.45;1.82;;;;;;;5.31;65.51;100710.59;1717912;82;21201;-42
2021/04/24 04:21:44;;;;;;;3.62;1.98;;;;;;;5.34;65.44;100706.97;1719614;82;21592;-42
2021/04/24 04:24:12;;;;;;;3.95;1.70;;;;;;;5.36;65.43;100712.62;1733213;81;21212;-44
2021/04/24 04:26:39;;;;;;;3.40;2.02;;;;;;;5.38;65.42;100722.70;1705337;82;21134;-44
2021/04/24 04:29:07;;;;;;;3.58;2.10;;;;;;;5.37;65.48;100726.27;1712679;83;21177;-43
2021/04/24 04:31:36;;;;;;;7.03;3.02;;;;;;;5.34;65.69;100723.73;1754203;81;21630;-43
2021/04/24 04:34:04;;;;;;;3.85;2.20;;;;;;;5.33;65.82;100731.70;1721325;81;21193;-44
2021/04/24 04:36:32;;;;;;;3.83;2.10;;;;;;;5.30;66.07;100727.38;1718917;81;21217;-42
2021/04/24 04:39:00;;;;;;;4.37;2.25;;;;;;;5.28;66.08;100725.24;1719483;82;21156;-43
2021/04/24 04:41:27;;;;;;;3.15;1.87;;;;;;;5.28;66.14;100731.85;1737883;80;21165;-42
2021/04/24 04:43:55;;;;;;;4.53;2.02;;;;;;;5.28;66.27;100729.20;1746872;81;21181;-43
2021/04/24 04:46:22;;;;;;;4.72;2.10;;;;;;;5.30;66.22;100736.64;1718143;82;21183;-43
2021/04/24 04:48:51;;;;;;;3.52;2.05;;;;;;;5.31;65.93;100733.06;1706242;82;21188;-44
2021/04/24 04:51:19;;;;;;;3.33;2.17;;;;;;;5.32;65.89;100730.84;1733808;81;21156;-42
2021/04/24 04:53:47;;;;;;;5.55;2.12;;;;;;;5.34;65.90;100727.70;1733942;81;21176;-43
2021/04/24 04:56:15;;;;;;;2.80;1.65;;;;;;;5.34;65.94;100724.16;1734230;81;21640;-43
2021/04/24 04:58:42;;;;;;;3.98;1.98;;;;;;;5.36;66.10;100713.09;1734151;81;21589;-43
2021/04/24 05:01:12;;;;;;;3.72;2.45;;;;;;;5.38;66.01;100709.47;1736359;81;21339;-43
2021/04/24 05:03:40;;;;;;;3.22;2.20;;;;;;;5.41;66.57;100712.01;1736198;81;21161;-44
2021/04/24 05:06:07;;;;;;;5.60;2.12;;;;;;;5.40;66.27;100727.95;1728497;82;21165;-44
2021/04/24 05:08:36;;;;;;;3.20;2.08;;;;;;;5.39;66.61;100731.06;1722971;81;21181;-44
2021/04/24 05:11:05;;;;;;;5.35;2.50;;;;;;;5.39;66.31;100737.67;1726178;82;21569;-45
2021/04/24 05:13:32;;;;;;;3.67;2.20;;;;;;;5.37;65.80;100739.96;1707529;82;21152;-43
2021/04/24 05:16:00;;;;;;;2.98;1.72;;;;;;;5.37;66.09;100747.43;1728824;81;21164;-44
2021/04/24 05:18:28;;;;;;;3.30;2.15;;;;;;;5.39;66.18;100748.68;1735912;81;21184;-43
2021/04/24 05:20:56;;;;;;;4.00;2.08;;;;;;;5.36;66.68;100749.65;1723618;82;21628;-42
2021/04/24 05:23:23;;;;;;;3.83;2.33;;;;;;;5.35;67.38;100749.72;1725208;81;21208;-43
2021/04/24 05:25:51;;;;;;;2.67;1.57;;;;;;;5.26;67.09;100757.47;1729765;81;21153;-42
2021/04/24 05:28:19;;;;;;;3.70;2.12;;;;;;;5.22;67.20;100754.54;1736015;81;21141;-44
2021/04/24 05:30:46;;;;;;;2.30;1.40;;;;;;;5.20;67.77;100762.51;1750277;81;21157;-40
2021/04/24 05:33:14;;;;;;;2.75;1.65;;;;;;;5.21;68.47;100758.08;1715718;82;21704;-40
2021/04/24 05:35:42;;;;;;;4.20;1.70;;;;;;;5.25;68.62;100750.47;1733336;81;21152;-41
2021/04/24 05:38:10;;;;;;;2.47;1.45;;;;;;;5.33;68.08;100751.55;1726756;81;21183;-43
2021/04/24 05:40:39;;;;;;;2.40;1.47;;;;;;;5.38;66.89;100745.64;1728127;81;21175;-44
2021/04/24 05:43:06;;;;;;;4.00;2.27;;;;;;;5.39;66.56;100748.68;1731407;81;21176;-43
2021/04/24 05:45:35;;;;;;;4.80;1.60;;;;;;;5.40;66.15;100740.71;1730425;82;21173;-42
2021/04/24 05:48:03;;;;;;;2.40;0.98;;;;;;;5.41;66.01;100737.13;1737911;81;21214;-48
2021/04/24 05:50:31;;;;;;;2.70;1.45;;;;;;;5.50;65.93;100735.98;1731023;81;21167;-44
2021/04/24 05:52:58;;;;;;;4.50;1.30;;;;;;;5.58;65.18;100735.26;1726165;82;21136;-45
2021/04/24 05:55:26;;;;;;;3.85;1.80;;;;;;;5.69;64.73;100731.38;1730823;81;21184;-44
2021/04/24 05:57:53;;;;;;;3.15;1.57;;;;;;;5.78;64.15;100725.31;1719734;82;21196;-44
2021/04/24 06:00:21;;;;;;;2.12;1.30;;;;;;;5.88;63.69;100723.22;1731855;81;21188;-44
2021/04/24 06:02:49;;;;;;;2.02;1.30;;;;;;;5.96;63.16;100714.57;1728141;81;21164;-42
2021/04/24 06:05:17;;;;;;;2.58;1.35;;;;;;;6.04;61.48;100720.91;1724382;81;21176;-43
2021/04/24 06:07:45;;;;;;;3.60;1.50;;;;;;;6.06;61.30;100716.44;1718149;81;21140;-45
2021/04/24 06:10:16;;;;;;;2.58;1.40;;;;;;;6.07;61.21;100723.44;1727314;81;21814;-47
2021/04/24 06:12:44;;;;;;;3.17;1.67;;;;;;;6.09;60.85;100727.38;1731542;81;21172;-41
2021/04/24 06:15:13;;;;;;;2.20;1.37;;;;;;;6.12;60.93;100735.20;1729204;81;21836;-43
2021/04/24 06:17:41;;;;;;;4.25;2.17;;;;;;;6.15;60.77;100732.44;1712796;82;21142;-45
2021/04/24 06:20:11;;;;;;;3.12;1.52;;;;;;;6.19;60.81;100738.03;1715352;82;21177;-45
2021/04/24 06:22:39;;;;;;;7.10;3.12;;;;;;;6.23;60.70;100737.88;1725570;81;21196;-44
2021/04/24 06:25:10;;;;;;;3.05;1.90;;;;;;;6.22;60.63;100738.81;1742987;80;21136;-45
2021/04/24 06:27:38;;;;;;;3.35;1.92;;;;;;;6.21;60.37;100738.38;1747927;80;21672;-50
2021/04/24 06:30:08;;;;;;;2.00;1.35;;;;;;;6.24;60.39;100742.70;1750668;81;21629;-41
2021/04/24 06:32:36;;;;;;;3.50;1.80;;;;;;;6.24;59.83;100744.89;1733482;80;21165;-44
2021/04/24 06:35:05;;;;;;;3.72;2.10;;;;;;;6.24;59.97;100745.35;1723826;81;21160;-44
2021/04/24 06:37:34;;;;;;;3.08;1.52;;;;;;;6.23;59.54;100739.20;1712649;81;21537;-47
2021/04/24 06:40:04;;;;;;;3.02;1.72;;;;;;;6.22;59.45;100739.24;1729845;81;21133;-40
2021/04/24 06:42:32;;;;;;;4.08;2.42;;;;;;;6.22;59.60;100739.24;1711805;82;21174;-42
2021/04/24 06:45:00;;;;;;;3.10;1.60;;;;;;;6.24;59.51;100737.41;1727420;80;21721;-44
2021/04/24 06:47:28;;;;;;;3.30;1.92;;;;;;;6.27;59.48;100740.83;1730216;81;21184;-41
2021/04/24 06:49:55;;;;;;;4.70;2.80;;;;;;;6.34;59.58;100737.47;1725666;81;21185;-45
2021/04/24 06:52:23;;;;;;;5.17;2.47;;;;;;;6.43;58.55;100736.28;1731990;81;21173;-43
2021/04/24 06:54:50;;;;;;;3.22;2.12;;;;;;;6.51;57.49;100734.20;1726476;81;21160;-42
2021/04/24 06:57:18;;;;;;;4.17;2.65;;;;;;;6.57;57.23;100741.05;1728562;81;21179;-44
2021/04/24 06:59:46;;;;;;;5.00;2.35;;;;;;;6.59;57.33;100739.22;1718719;81;21611;-43
2021/04/24 07:02:14;;;;;;;2.95;1.65;;;;;;;6.65;56.92;100744.27;1717927;81;21592;-41
2021/04/24 07:04:42;;;;;;;2.58;1.70;;;;;;;6.70;55.20;100746.28;1727298;81;21160;-41
2021/04/24 07:07:09;;;;;;;3.00;2.33;;;;;;;6.71;54.51;100744.91;1722177;81;21205;-43
2021/04/24 07:09:37;;;;;;;2.95;1.30;;;;;;;6.70;51.51;100748.93;1749442;81;21169;-46
2021/04/24 07:12:06;;;;;;;3.22;2.08;;;;;;;6.72;50.08;100728.07;1741453;81;21189;-43
2021/04/24 07:14:34;;;;;;;4.85;1.40;;;;;;;6.75;49.10;100735.50;1734881;81;21168;-42
2021/04/24 07:17:01;;;;;;;2.95;1.45;;;;;;;6.81;50.14;100741.91;1730456;80;21172;-43
2021/04/24 07:19:30;;;;;;;2.35;1.30;;;;;;;6.81;51.25;100747.22;1748756;81;22140;-45
2021/04/24 07:21:57;;;;;;;1.72;1.00;;;;;;;6.83;50.72;100740.04;1713442;82;21150;-44
2021/04/24 07:24:26;;;;;;;1.98;1.22;;;;;;;6.85;49.60;100744.36;1703935;82;21544;-43
2021/04/24 07:26:53;;;;;;;3.67;1.62;;;;;;;6.89;50.24;100735.37;1754272;81;21185;-44
2021/04/24 07:29:21;;;;;;;1.90;1.00;;;;;;;6.90;48.93;100750.81;1734163;81;21180;-44
2021/04/24 07:31:48;;;;;;;2.90;1.02;;;;;;;6.95;47.57;100752.83;1732644;81;21180;-44
2021/04/24 07:34:16;;;;;;;1.67;0.98;;;;;;;6.96;47.38;100759.02;1729374;81;21163;-44
2021/04/24 07:36:44;;;;;;;2.95;0.72;;;;;;;6.94;45.43;100757.27;1734726;81;21588;-45
2021/04/24 07:39:12;;;;;;;1.87;0.82;;;;;;;6.93;45.35;100748.92;1732787;81;21580;-42
2021/04/24 07:41:39;;;;;;;1.52;0.72;;;;;;;6.97;45.53;100749.66;1724421;81;21129;-45
2021/04/24 07:44:07;;;;;;;1.55;0.80;;;;;;;7.06;45.16;100749.77;1719228;82;21129;-44
2021/04/24 07:46:36;;;;;;;1.62;0.80;;;;;;;7.26;43.71;100738.37;1730224;81;21671;-43
2021/04/24 07:49:05;;;;;;;1.82;1.17;;;;;;;7.26;43.71;100738.37;1727542;81;21965;-42
2021/04/24 07:51:32;;;;;;;3.47;1.07;;;;;;;7.34;44.02;100745.55;1714608;81;21618;-44
2021/04/24 07:54:00;;;;;;;3.08;1.00;;;;;;;7.38;40.77;100752.43;1684232;82;21176;-45
2021/04/24 07:56:28;;;;;;;1.07;0.70;;;;;;;7.44;42.07;100752.20;1741756;80;21191;-45
2021/04/24 07:58:56;;;;;;;2.12;1.22;;;;;;;7.50;41.96;100747.09;1704773;82;21173;-45
2021/04/24 08:01:23;;;;;;;3.75;1.40;;;;;;;7.53;41.71;100742.54;1705930;81;21751;-44
2021/04/24 08:03:51;;;;;;;1.50;0.70;;;;;;;7.57;40.73;100737.48;1736034;81;21587;-44
2021/04/24 08:06:19;;;;;;;1.30;0.55;;;;;;;7.58;41.53;100744.53;1711119;82;21261;-43
2021/04/24 08:08:50;;;;;;;0.95;0.70;;;;;;;7.50;41.08;100747.09;1722176;81;21171;-45
2021/04/24 08:11:17;;;;;;;2.12;0.90;;;;;;;7.39;41.82;100768.77;1735878;81;21164;-42
2021/04/24 08:13:44;;;;;;;1.52;0.70;;;;;;;7.19;41.03;100749.67;1722160;81;21193;-42
2021/04/24 08:16:12;;;;;;;1.22;0.93;;;;;;;7.06;40.89;100757.73;1732569;81;21153;-44
2021/04/24 08:18:40;;;;;;;1.40;0.70;;;;;;;7.00;40.90;100755.30;1729493;81;21631;-44
2021/04/24 08:21:08;;;;;;;1.22;0.65;;;;;;;7.03;40.89;100755.17;1735493;81;21173;-43
2021/04/24 08:23:36;;;;;;;0.93;0.50;;;;;;;7.12;40.92;100744.21;1722479;81;21153;-46
2021/04/24 08:26:04;;;;;;;2.87;0.62;;;;;;;7.30;40.95;100744.78;1716515;82;21693;-46
2021/04/24 08:28:32;;;;;;;1.02;0.42;;;;;;;7.47;41.13;100764.48;1716706;82;21173;-45
2021/04/24 08:30:59;;;;;;;1.70;0.60;;;;;;;7.49;40.86;100765.28;1711207;82;21177;-46
2021/04/24 08:33:27;;;;;;;1.40;0.70;;;;;;;7.42;40.77;100759.35;1712611;81;21184;-46
2021/04/24 08:35:55;;;;;;;2.15;0.50;;;;;;;7.36;41.13;100767.58;1726405;81;21124;-46
2021/04/24 08:38:23;;;;;;;5.55;1.02;;;;;;;7.32;42.09;100771.27;1726844;82;21148;-45
2021/04/24 08:40:51;;;;;;;0.80;0.60;;;;;;;7.32;40.63;100751.38;1721137;81;21176;-46
2021/04/24 08:43:19;;;;;;;1.20;0.70;;;;;;;7.36;40.41;100744.55;1743748;81;21634;-46
2021/04/24 08:45:47;;;;;;;1.35;0.47;;;;;;;7.39;38.57;100751.52;1718276;81;21272;-42
2021/04/24 08:48:15;;;;;;;3.15;0.62;;;;;;;7.46;38.43;100751.67;1719018;81;21215;-41
2021/04/24 08:50:43;;;;;;;0.72;0.40;;;;;;;7.52;37.91;100752.73;1713898;81;21616;-43
2021/04/24 08:53:10;;;;;;;0.50;0.40;;;;;;;7.67;38.90;100738.44;1745313;81;21813;-42
2021/04/24 08:55:39;;;;;;;1.07;0.50;;;;;;;7.80;38.68;100745.80;1749610;81;21157;-45
2021/04/24 08:58:07;;;;;;;1.32;0.60;;;;;;;7.91;38.61;100747.12;1751297;81;21689;-44
2021/04/24 09:00:37;;;;;;;1.98;1.02;;;;;;;7.99;37.70;100741.89;1744237;81;21471;-44
2021/04/24 09:03:08;;;;;;;1.60;0.80;;;;;;;8.07;38.25;100752.19;1730233;81;21245;-44
2021/04/24 09:05:36;;;;;;;2.00;0.95;;;;;;;8.16;39.60;100750.43;1745366;81;21406;-44
2021/04/24 09:08:07;;;;;;;8.38;1.02;;;;;;;8.25;39.73;100754.48;1733501;81;21157;-45
2021/04/24 09:10:43;;;;;;;1.52;0.82;;;;;;;8.21;38.71;100766.17;1729667;81;21193;-45
2021/04/24 09:13:13;;;;;;;1.12;0.60;;;;;;;8.15;38.90;100778.41;1727845;81;21664;-45
2021/04/24 09:15:43;;;;;;;1.25;0.70;;;;;;;8.08;38.74;100773.81;1718136;81;21184;-45
2021/04/24 09:18:15;;;;;;;1.12;0.37;;;;;;;8.05;38.69;100763.80;1710515;81;21188;-46
2021/04/24 09:20:56;;;;;;;3.10;0.78;;;;;;;8.02;38.00;100758.16;1745371;80;21320;-45
2021/04/24 09:23:33;;;;;;;2.52;0.50;;;;;;;8.02;38.03;100759.02;1747822;80;21929;-41
2021/04/24 09:26:07;;;;;;;1.45;0.70;;;;;;;8.10;38.26;100747.20;1715513;81;21177;-41
2021/04/24 09:28:44;;;;;;;1.70;0.82;;;;;;;8.12;36.95;100754.64;1719301;81;21515;-40
2021/04/24 09:31:21;;;;;;;1.20;0.55;;;;;;;8.11;37.53;100754.23;1737622;80;21172;-40
2021/04/24 09:33:58;;;;;;;1.40;0.80;;;;;;;8.10;37.10;100773.30;1706870;81;21294;-41
2021/04/24 09:36:45;;;;;;;2.83;0.62;;;;;;;8.03;37.06;100754.09;1686008;82;21166;-41
2021/04/24 09:39:19;;;;;;;0.88;0.25;;;;;;;8.00;37.98;100772.82;1726470;81;21612;-46
2021/04/24 09:41:46;;;;;;;1.47;0.72;;;;;;;7.94;36.11;100777.08;1724740;81;21164;-44
2021/04/24 09:44:19;;;;;;;1.65;0.60;;;;;;;7.91;37.09;100770.58;1742104;80;21153;-45
2021/04/24 09:46:56;;;;;;;1.85;0.62;;;;;;;8.02;37.22;100764.80;1719914;81;21310;-46
2021/04/24 09:49:31;;;;;;;1.92;0.60;;;;;;;8.02;37.22;100764.80;1747516;80;21581;-45
2021/04/24 09:52:03;;;;;;;1.95;0.60;;;;;;;8.00;36.94;100772.82;1745917;81;21153;-45
2021/04/24 09:54:46;;;;;;;4.42;0.90;;;;;;;8.00;36.94;100772.82;1747837;81;21172;-46
2021/04/24 09:57:20;;;;;;;1.65;1.10;;;;;;;7.98;36.29;100779.13;1750453;81;21151;-43
2021/04/24 09:59:59;;;;;;;3.42;1.20;;;;;;;7.98;37.38;100777.33;1749313;81;21133;-42
2021/04/24 10:02:42;;;;;;;2.95;1.40;;;;;;;8.05;37.17;100779.27;1751232;81;21177;-44
2021/04/24 10:05:23;;;;;;;3.87;1.40;;;;;;;8.15;36.09;100774.42;1753714;81;21145;-44
2021/04/24 10:07:56;;;;;;;2.50;1.02;;;;;;;8.19;36.26;100780.02;1744509;80;21153;-44
2021/04/24 10:10:32;;;;;;;1.87;1.12;;;;;;;8.18;37.47;100779.59;1751683;81;21153;-45
2021/04/24 10:13:08;;;;;;;3.08;0.72;;;;;;;8.15;37.69;100785.05;1745077;80;21165;-40
2021/04/24 10:15:45;;;;;;;2.22;1.10;;;;;;;8.13;38.14;100778.94;1745254;81;21144;-42
2021/04/24 10:18:14;;;;;;;1.95;0.70;;;;;;;8.18;38.26;100769.83;1735894;81;21192;-41
2021/04/24 10:20:45;;;;;;;1.32;0.50;;;;;;;8.26;36.07;100777.45;1742106;80;21141;-42
2021/04/24 10:23:14;;;;;;;1.17;0.57;;;;;;;8.26;36.15;100770.81;1748120;80;21154;-40
2021/04/24 10:25:44;;;;;;;2.77;0.40;;;;;;;8.20;36.69;100769.30;1745207;80;21160;-47
2021/04/24 10:28:11;;;;;;;1.20;0.53;;;;;;;8.16;36.80;100780.98;1752978;80;21653;-47
2021/04/24 10:30:40;;;;;;;2.98;0.68;;;;;;;8.11;37.88;100784.30;1751109;80;21260;-46
2021/04/24 10:33:46;;;;;;;1.05;0.35;;;;;;;8.08;37.30;100787.09;1720532;81;21534;-45
2021/04/24 10:37:56;;;;;;;1.37;0.60;;;;;;;8.17;36.01;100796.48;1878657;75;28577;-47
2021/04/24 10:40:24;;;;;;;1.00;0.47;;;;;;;8.18;36.38;100796.87;1784642;78;21143;-45
2021/04/24 10:42:54;;;;;;;1.47;0.60;;;;;;;8.18;36.38;100796.87;1759374;80;21987;-47
2021/04/24 10:45:32;;;;;;;1.55;0.62;;;;;;;8.17;35.62;100793.82;1766645;80;21169;-48
2021/04/24 10:48:00;;;;;;;2.35;1.05;;;;;;;8.29;35.90;100801.27;1787797;78;21149;-46
2021/04/24 10:50:45;;;;;;;1.77;0.65;;;;;;;8.29;35.90;100801.27;1767454;78;21148;-46
2021/04/24 10:53:30;;;;;;;1.45;0.78;;;;;;;8.37;35.93;100800.45;1770662;79;21196;-46
2021/04/24 10:55:59;;;;;;;1.72;0.70;;;;;;;8.42;35.53;100799.81;1776714;78;21182;-46
2021/04/24 10:58:29;;;;;;;1.10;0.50;;;;;;;8.41;35.58;100805.19;1766366;79;21148;-47
2021/04/24 11:01:00;;;;;;;0.85;0.40;;;;;;;8.38;36.21;100797.32;1762939;79;21169;-44
2021/04/24 11:03:53;;;;;;;1.90;0.60;;;;;;;8.36;35.76;100807.15;1768190;79;21162;-45
2021/04/24 11:06:23;;;;;;;1.27;0.60;;;;;;;8.32;36.25;100803.77;1769439;79;21156;-45
2021/04/24 11:09:17;;;;;;;2.20;0.85;;;;;;;8.27;37.31;100806.25;1752153;80;21580;-47
2021/04/24 11:11:47;;;;;;;1.37;0.93;;;;;;;8.26;37.63;100813.33;1742832;81;21158;-46
2021/04/24 11:14:18;;;;;;;1.22;0.50;;;;;;;8.27;37.84;100809.76;1779605;78;21155;-55
2021/04/24 11:16:46;;;;;;;1.15;0.35;;;;;;;8.29;36.66;100807.02;1749832;81;21176;-45
2021/04/24 11:19:45;;;;;;;1.00;0.45;;;;;;;8.35;35.57;100804.97;1718507;80;21169;-39
2021/04/24 11:22:35;;;;;;;0.70;0.40;;;;;;;8.37;36.18;100801.78;1754411;79;21639;-43
2021/04/24 11:25:26;;;;;;;2.58;0.60;;;;;;;8.36;35.52;100804.02;1772986;79;21240;-44
2021/04/24 11:28:09;;;;;;;0.95;0.50;;;;;;;8.37;34.95;100795.14;1772662;79;21163;-48
2021/04/24 11:30:58;;;;;;;1.15;0.50;;;;;;;8.37;34.95;100795.14;1786112;79;21136;-44
2021/04/24 11:37:32;;;;;;;1.17;0.50;;;;;;;8.62;33.60;100800.25;1665945;82;21144;-41
2021/04/24 11:40:18;;;;;;;2.17;1.40;;;;;;;8.83;34.30;100791.75;1666730;84;21178;-42
2021/04/24 11:43:12;;;;;;;2.40;0.70;;;;;;;8.97;36.16;100792.89;1793772;77;23084;-44
2021/04/24 11:45:57;;;;;;;1.75;1.00;;;;;;;8.83;36.73;100797.06;1768926;78;21143;-43
2021/04/24 11:48:51;;;;;;;3.65;1.30;;;;;;;8.70;35.42;100792.39;1805665;78;21145;-43
2021/04/24 11:51:35;;;;;;;1.45;1.00;;;;;;;8.66;36.69;100790.33;1806082;78;21141;-43
2021/04/24 11:54:09;;;;;;;2.45;0.80;;;;;;;8.75;35.78;100785.07;1800658;78;21845;-42